createdAt,value
2019-06-01T00:00:10.908Z,0.00
2019-06-01T00:00:58.251Z,0.00
2019-06-01T00:01:58.196Z,0.00
2019-06-01T00:02:58.187Z,0.00
2019-06-01T00:03:58.124Z,0.00
2019-06-01T00:04:58.148Z,0.00
2019-06-01T00:05:58.081Z,0.00
2019-06-01T00:06:58.053Z,0.00
2019-06-01T00:07:58.009Z,0.00
2019-06-01T00:08:57.995Z,0.00
2019-06-01T00:09:57.959Z,0.00
2019-06-01T00:10:57.923Z,0.00
2019-06-01T00:11:57.890Z,0.00
2019-06-01T00:12:57.855Z,0.00
2019-06-01T00:13:57.828Z,0.00
2019-06-01T00:14:57.804Z,0.00
2019-06-01T00:15:57.769Z,0.00
2019-06-01T00:16:57.748Z,0.00
2019-06-01T00:17:57.719Z,0.00
2019-06-01T00:18:57.673Z,0.00
2019-06-01T00:19:57.644Z,0.00
2019-06-01T00:20:57.632Z,0.00
2019-06-01T00:21:57.588Z,0.00
2019-06-01T00:22:57.580Z,0.00
2019-06-01T00:23:57.555Z,0.00
2019-06-01T00:24:57.522Z,0.00
2019-06-01T00:25:57.468Z,0.00
2019-06-01T00:26:57.435Z,0.00
2019-06-01T00:27:57.404Z,0.00
2019-06-01T00:28:57.365Z,0.00
2019-06-01T00:29:57.352Z,0.00
2019-06-01T00:30:57.305Z,0.00
2019-06-01T00:31:57.271Z,0.00
2019-06-01T00:32:57.263Z,0.00
2019-06-01T00:33:57.226Z,0.00
2019-06-01T00:34:57.189Z,0.00
2019-06-01T00:35:57.158Z,0.00
2019-06-01T00:36:57.128Z,0.00
2019-06-01T00:37:57.095Z,0.00
2019-06-01T00:38:57.076Z,0.00
2019-06-01T00:39:57.040Z,0.00
2019-06-01T00:40:57.016Z,0.00
2019-06-01T00:41:56.969Z,0.00
2019-06-01T00:42:56.940Z,0.00
2019-06-01T00:43:56.917Z,0.00
2019-06-01T00:44:56.887Z,0.00
2019-06-01T00:45:56.851Z,0.00
2019-06-01T00:46:56.831Z,0.00
2019-06-01T00:47:56.787Z,0.00
2019-06-01T00:48:56.755Z,0.00
2019-06-01T00:49:56.753Z,0.00
2019-06-01T00:50:56.696Z,0.00
2019-06-01T00:51:56.662Z,0.00
2019-06-01T00:52:56.636Z,0.00
2019-06-01T00:53:56.616Z,0.00
2019-06-01T00:54:56.575Z,0.00
2019-06-01T00:55:56.544Z,0.00
2019-06-01T00:56:56.509Z,0.00
2019-06-01T00:57:56.510Z,0.00
2019-06-01T00:58:56.470Z,0.00
2019-06-01T00:59:56.456Z,0.00
2019-06-01T01:00:56.381Z,0.00
2019-06-01T01:01:56.360Z,0.00
2019-06-01T01:02:56.343Z,0.00
2019-06-01T01:03:56.302Z,0.00
2019-06-01T01:04:56.280Z,0.00
2019-06-01T01:05:56.258Z,0.00
2019-06-01T01:06:56.193Z,0.00
2019-06-01T01:07:56.164Z,0.00
2019-06-01T01:08:56.156Z,0.00
2019-06-01T01:09:56.113Z,0.00
2019-06-01T01:10:56.103Z,0.00
2019-06-01T01:11:56.043Z,0.00
2019-06-01T01:12:56.037Z,0.00
2019-06-01T01:13:56.006Z,0.00
2019-06-01T01:14:55.950Z,0.00
2019-06-01T01:15:55.943Z,0.00
2019-06-01T01:16:55.888Z,0.00
2019-06-01T01:17:56.170Z,0.00
2019-06-01T01:18:56.027Z,0.00
2019-06-01T01:19:56.018Z,0.00
2019-06-01T01:21:31.123Z,0.00
2019-06-01T01:22:03.819Z,0.00
2019-06-01T01:23:04.299Z,0.00
2019-06-01T01:25:17.556Z,0.00
2019-06-01T01:26:30.858Z,0.00
2019-06-01T01:28:16.818Z,0.00
2019-06-01T01:29:04.951Z,0.00
2019-06-01T01:30:09.166Z,0.00
2019-06-01T01:31:12.073Z,0.00
2019-06-01T01:32:21.890Z,0.00
2019-06-01T01:33:15.711Z,0.00
2019-06-01T01:34:13.814Z,0.00
2019-06-01T01:35:07.354Z,0.00
2019-06-01T01:36:03.174Z,0.00
2019-06-01T01:37:27.553Z,0.00
2019-06-01T01:38:07.060Z,0.00
2019-06-01T01:39:08.194Z,0.00
2019-06-01T01:40:05.277Z,0.00
2019-06-01T01:41:10.919Z,0.00
2019-06-01T01:43:07.140Z,0.00
2019-06-01T01:45:03.794Z,0.00
2019-06-01T01:48:08.769Z,0.00
2019-06-01T01:49:07.121Z,0.00
2019-06-01T01:51:08.767Z,0.00
2019-06-01T01:52:05.271Z,0.00
2019-06-01T01:53:07.792Z,0.00
2019-06-01T01:54:04.577Z,0.00
2019-06-01T01:55:06.533Z,0.00
2019-06-01T01:56:04.578Z,0.00
2019-06-01T01:57:30.264Z,0.00
2019-06-01T01:58:03.259Z,0.00
2019-06-01T01:59:11.029Z,0.00
2019-06-01T02:00:20.504Z,0.00
2019-06-01T02:01:20.703Z,0.00
2019-06-01T02:02:05.617Z,0.00
2019-06-01T02:04:38.573Z,0.00
2019-06-01T02:05:38.241Z,0.00
2019-06-01T02:06:38.519Z,0.00
2019-06-01T02:07:43.790Z,0.00
2019-06-01T02:08:46.634Z,0.00
2019-06-01T02:09:49.900Z,0.00
2019-06-01T02:10:57.591Z,0.00
2019-06-01T02:12:09.285Z,0.00
2019-06-01T02:16:45.446Z,0.00
2019-06-01T02:20:58.605Z,0.00
2019-06-01T02:22:00.701Z,0.00
2019-06-01T02:23:01.079Z,0.00
2019-06-01T02:24:26.841Z,0.00
2019-06-01T02:25:07.040Z,0.00
2019-06-01T02:26:07.491Z,0.00
2019-06-01T02:28:11.805Z,0.00
2019-06-01T02:30:56.219Z,0.00
2019-06-01T02:31:56.628Z,0.00
2019-06-01T02:32:58.395Z,0.00
2019-06-01T02:34:06.039Z,0.00
2019-06-01T02:38:45.674Z,0.00
2019-06-01T02:39:42.203Z,0.00
2019-06-01T02:42:47.293Z,0.00
2019-06-01T02:44:09.808Z,0.00
2019-06-01T02:46:27.189Z,0.00
2019-06-01T02:47:26.632Z,0.00
2019-06-01T02:48:38.475Z,0.00
2019-06-01T02:49:30.278Z,0.00
2019-06-01T02:50:27.828Z,0.00
2019-06-01T02:51:34.267Z,0.00
2019-06-01T02:53:31.704Z,0.00
2019-06-01T03:00:39.163Z,4.00
2019-06-01T03:01:38.938Z,4.00
2019-06-01T03:03:40.488Z,0.00
2019-06-01T03:04:38.739Z,4.00
2019-06-01T03:05:38.732Z,4.00
2019-06-01T03:06:38.692Z,4.00
2019-06-01T03:07:38.660Z,4.00
2019-06-01T03:08:38.619Z,4.00
2019-06-01T03:09:38.588Z,8.00
2019-06-01T03:10:38.558Z,4.00
2019-06-01T03:11:38.531Z,8.00
2019-06-01T03:12:38.504Z,8.00
2019-06-01T03:13:38.465Z,12.00
2019-06-01T03:14:38.429Z,12.00
2019-06-01T03:15:38.422Z,12.00
2019-06-01T03:16:40.225Z,12.00
2019-06-01T03:17:38.339Z,16.00
2019-06-01T03:18:38.312Z,20.00
2019-06-01T03:19:38.266Z,20.00
2019-06-01T03:20:38.245Z,24.00
2019-06-01T03:21:38.233Z,24.00
2019-06-01T03:22:38.183Z,28.00
2019-06-01T03:23:38.140Z,28.00
2019-06-01T03:24:38.115Z,32.00
2019-06-01T03:25:38.093Z,36.00
2019-06-01T03:26:38.054Z,40.00
2019-06-01T03:27:38.030Z,40.00
2019-06-01T03:28:37.985Z,48.00
2019-06-01T03:29:37.960Z,52.00
2019-06-01T03:30:37.930Z,52.00
2019-06-01T03:31:37.890Z,56.00
2019-06-01T03:32:37.901Z,64.00
2019-06-01T03:33:37.845Z,64.00
2019-06-01T03:34:37.795Z,72.00
2019-06-01T03:35:37.759Z,76.00
2019-06-01T03:36:37.726Z,80.00
2019-06-01T03:37:37.699Z,84.00
2019-06-01T03:38:37.669Z,92.00
2019-06-01T03:39:37.637Z,96.00
2019-06-01T03:40:37.597Z,100.00
2019-06-01T03:41:37.560Z,104.00
2019-06-01T03:42:37.549Z,116.00
2019-06-01T03:43:37.506Z,120.00
2019-06-01T03:44:37.495Z,128.00
2019-06-01T03:45:37.470Z,136.00
2019-06-01T03:46:37.407Z,144.00
2019-06-01T03:47:37.376Z,152.00
2019-06-01T03:48:37.350Z,160.00
2019-06-01T03:49:37.352Z,168.00
2019-06-01T03:50:37.280Z,176.00
2019-06-01T03:51:37.252Z,192.00
2019-06-01T03:52:37.227Z,200.00
2019-06-01T03:53:37.187Z,208.00
2019-06-01T03:54:37.157Z,220.00
2019-06-01T03:55:37.139Z,232.00
2019-06-01T03:56:37.083Z,240.00
2019-06-01T03:57:37.052Z,256.00
2019-06-01T03:58:37.026Z,264.00
2019-06-01T03:59:37.007Z,276.00
2019-06-01T04:00:36.970Z,284.00
2019-06-01T04:01:36.944Z,292.00
2019-06-01T04:02:36.918Z,304.00
2019-06-01T04:03:36.861Z,312.00
2019-06-01T04:04:36.838Z,320.00
2019-06-01T04:05:36.797Z,328.00
2019-06-01T04:06:36.786Z,332.00
2019-06-01T04:07:38.888Z,340.00
2019-06-01T04:08:36.707Z,344.00
2019-06-01T04:09:36.674Z,348.00
2019-06-01T04:10:36.646Z,356.00
2019-06-01T04:11:36.608Z,364.00
2019-06-01T04:12:36.578Z,372.00
2019-06-01T04:13:36.543Z,376.00
2019-06-01T04:14:36.533Z,380.00
2019-06-01T04:15:36.487Z,384.00
2019-06-01T04:16:36.452Z,388.00
2019-06-01T04:17:36.417Z,396.00
2019-06-01T04:18:36.400Z,400.00
2019-06-01T04:19:36.379Z,404.00
2019-06-01T04:20:36.329Z,412.00
2019-06-01T04:21:36.288Z,412.00
2019-06-01T04:22:36.252Z,416.00
2019-06-01T04:23:36.547Z,416.00
2019-06-01T04:24:36.190Z,420.00
2019-06-01T04:25:36.164Z,420.00
2019-06-01T04:26:36.141Z,420.00
2019-06-01T04:27:36.110Z,420.00
2019-06-01T04:28:36.067Z,424.00
2019-06-01T04:29:36.032Z,432.00
2019-06-01T04:30:36.009Z,440.00
2019-06-01T04:31:35.970Z,444.00
2019-06-01T04:32:48.840Z,456.00
2019-06-01T04:33:35.929Z,460.00
2019-06-01T04:34:35.910Z,468.00
2019-06-01T04:35:35.845Z,484.00
2019-06-01T04:36:35.832Z,492.00
2019-06-01T04:37:35.783Z,496.00
2019-06-01T04:38:35.777Z,504.00
2019-06-01T04:39:35.734Z,508.00
2019-06-01T04:40:35.679Z,512.00
2019-06-01T04:41:35.660Z,512.00
2019-06-01T04:42:35.650Z,516.00
2019-06-01T04:43:35.591Z,520.00
2019-06-01T04:44:35.743Z,528.00
2019-06-01T04:45:35.523Z,532.00
2019-06-01T04:46:35.494Z,544.00
2019-06-01T04:47:35.461Z,552.00
2019-06-01T04:48:35.426Z,560.00
2019-06-01T04:49:35.404Z,564.00
2019-06-01T04:50:35.379Z,568.00
2019-06-01T04:51:35.359Z,576.00
2019-06-01T04:52:35.304Z,584.00
2019-06-01T04:53:35.281Z,592.00
2019-06-01T04:54:35.246Z,600.00
2019-06-01T04:55:35.216Z,608.00
2019-06-01T04:56:35.195Z,616.00
2019-06-01T04:57:35.160Z,624.00
2019-06-01T04:58:35.116Z,632.00
2019-06-01T04:59:37.770Z,644.00
2019-06-01T05:00:35.050Z,652.00
2019-06-01T05:01:35.020Z,656.00
2019-06-01T05:02:35.041Z,672.00
2019-06-01T05:03:34.977Z,676.00
2019-06-01T05:04:34.928Z,684.00
2019-06-01T05:05:34.900Z,692.00
2019-06-01T05:06:34.888Z,692.00
2019-06-01T05:07:34.862Z,700.00
2019-06-01T05:08:34.805Z,700.00
2019-06-01T05:09:34.772Z,704.00
2019-06-01T05:10:34.756Z,704.00
2019-06-01T05:11:34.702Z,700.00
2019-06-01T05:12:34.680Z,708.00
2019-06-01T05:13:34.643Z,708.00
2019-06-01T05:14:34.622Z,712.00
2019-06-01T05:15:34.595Z,716.00
2019-06-01T05:16:34.547Z,712.00
2019-06-01T05:17:34.518Z,716.00
2019-06-01T05:18:34.511Z,716.00
2019-06-01T05:19:34.459Z,708.00
2019-06-01T05:20:34.426Z,704.00
2019-06-01T05:21:34.416Z,708.00
2019-06-01T05:22:34.352Z,712.00
2019-06-01T05:23:34.331Z,716.00
2019-06-01T05:24:34.307Z,720.00
2019-06-01T05:25:34.280Z,728.00
2019-06-01T05:26:34.238Z,724.00
2019-06-01T05:27:34.209Z,716.00
2019-06-01T05:28:34.163Z,712.00
2019-06-01T05:29:34.162Z,708.00
2019-06-01T05:30:34.121Z,700.00
2019-06-01T05:31:34.081Z,688.00
2019-06-01T05:32:34.058Z,688.00
2019-06-01T05:33:37.544Z,684.00
2019-06-01T05:34:33.982Z,688.00
2019-06-01T05:35:33.971Z,684.00
2019-06-01T05:36:33.927Z,688.00
2019-06-01T05:37:33.888Z,688.00
2019-06-01T05:38:33.870Z,688.00
2019-06-01T05:39:33.876Z,688.00
2019-06-01T05:40:33.798Z,684.00
2019-06-01T05:41:33.759Z,684.00
2019-06-01T05:42:33.767Z,680.00
2019-06-01T05:43:33.708Z,672.00
2019-06-01T05:44:33.674Z,664.00
2019-06-01T05:45:33.662Z,660.00
2019-06-01T05:46:33.622Z,656.00
2019-06-01T05:47:33.634Z,668.00
2019-06-01T05:48:33.555Z,676.00
2019-06-01T05:49:33.517Z,684.00
2019-06-01T05:50:33.479Z,684.00
2019-06-01T05:51:33.457Z,684.00
2019-06-01T05:52:33.440Z,684.00
2019-06-01T05:53:33.392Z,680.00
2019-06-01T05:54:33.367Z,680.00
2019-06-01T05:55:33.332Z,680.00
2019-06-01T05:56:33.293Z,680.00
2019-06-01T05:57:33.263Z,684.00
2019-06-01T05:58:33.272Z,684.00
2019-06-01T05:59:33.217Z,684.00
2019-06-01T06:00:33.184Z,684.00
2019-06-01T06:01:33.150Z,684.00
2019-06-01T06:02:33.134Z,684.00
2019-06-01T06:03:40.450Z,688.00
2019-06-01T06:04:33.049Z,688.00
2019-06-01T06:05:33.028Z,688.00
2019-06-01T06:06:32.981Z,688.00
2019-06-01T06:07:32.999Z,688.00
2019-06-01T06:08:32.931Z,696.00
2019-06-01T06:09:32.917Z,692.00
2019-06-01T06:10:32.875Z,692.00
2019-06-01T06:11:32.843Z,692.00
2019-06-01T06:12:32.809Z,700.00
2019-06-01T06:13:32.784Z,696.00
2019-06-01T06:14:32.753Z,700.00
2019-06-01T06:15:32.711Z,696.00
2019-06-01T06:16:32.711Z,704.00
2019-06-01T06:17:32.679Z,704.00
2019-06-01T06:18:32.630Z,704.00
2019-06-01T06:19:32.590Z,708.00
2019-06-01T06:20:32.555Z,708.00
2019-06-01T06:21:32.534Z,712.00
2019-06-01T06:22:32.525Z,708.00
2019-06-01T06:23:32.487Z,704.00
2019-06-01T06:24:32.440Z,704.00
2019-06-01T06:25:33.958Z,700.00
2019-06-01T06:26:32.399Z,704.00
2019-06-01T06:27:32.351Z,708.00
2019-06-01T06:28:32.326Z,708.00
2019-06-01T06:29:32.306Z,712.00
2019-06-01T06:30:32.286Z,712.00
2019-06-01T06:31:32.272Z,720.00
2019-06-01T06:32:32.205Z,728.00
2019-06-01T06:33:32.162Z,732.00
2019-06-01T06:34:32.130Z,740.00
2019-06-01T06:35:32.136Z,748.00
2019-06-01T06:36:32.089Z,756.00
2019-06-01T06:37:32.047Z,760.00
2019-06-01T06:38:32.022Z,768.00
2019-06-01T06:39:31.991Z,776.00
2019-06-01T06:40:31.963Z,784.00
2019-06-01T06:41:31.922Z,792.00
2019-06-01T06:42:31.897Z,796.00
2019-06-01T06:43:33.264Z,804.00
2019-06-01T06:44:31.848Z,812.00
2019-06-01T06:45:31.827Z,808.00
2019-06-01T06:46:31.786Z,812.00
2019-06-01T06:47:31.752Z,812.00
2019-06-01T06:48:31.716Z,812.00
2019-06-01T06:49:31.688Z,816.00
2019-06-01T06:50:31.647Z,816.00
2019-06-01T06:51:31.631Z,812.00
2019-06-01T06:52:31.629Z,820.00
2019-06-01T06:53:35.123Z,820.00
2019-06-01T06:54:31.541Z,816.00
2019-06-01T06:55:31.521Z,820.00
2019-06-01T06:56:31.527Z,820.00
2019-06-01T06:57:31.492Z,820.00
2019-06-01T06:58:31.425Z,820.00
2019-06-01T06:59:31.418Z,816.00
2019-06-01T07:00:40.009Z,820.00
2019-06-01T07:02:35.783Z,824.00
2019-06-01T07:03:45.293Z,824.00
2019-06-01T07:05:40.197Z,824.00
2019-06-01T07:06:49.667Z,828.00
2019-06-01T07:08:44.511Z,832.00
2019-06-01T07:09:44.507Z,836.00
2019-06-01T07:10:44.487Z,836.00
2019-06-01T07:11:44.434Z,840.00
2019-06-01T07:12:44.407Z,844.00
2019-06-01T07:13:44.383Z,848.00
2019-06-01T07:14:44.350Z,852.00
2019-06-01T07:15:44.306Z,864.00
2019-06-01T07:16:44.276Z,868.00
2019-06-01T07:17:44.260Z,868.00
2019-06-01T07:18:44.229Z,876.00
2019-06-01T07:19:44.213Z,880.00
2019-06-01T07:20:44.176Z,888.00
2019-06-01T07:21:44.156Z,888.00
2019-06-01T07:22:44.097Z,892.00
2019-06-01T07:23:44.113Z,900.00
2019-06-01T07:24:44.043Z,900.00
2019-06-01T07:25:44.067Z,904.00
2019-06-01T07:26:44.024Z,912.00
2019-06-01T07:27:43.990Z,912.00
2019-06-01T07:28:44.627Z,916.00
2019-06-01T07:29:43.898Z,920.00
2019-06-01T07:30:50.541Z,932.00
2019-06-01T07:31:43.901Z,932.00
2019-06-01T07:32:43.830Z,936.00
2019-06-01T07:33:43.790Z,940.00
2019-06-01T07:34:43.749Z,948.00
2019-06-01T07:35:43.776Z,952.00
2019-06-01T07:36:43.703Z,964.00
2019-06-01T07:37:43.671Z,968.00
2019-06-01T07:38:43.639Z,984.00
2019-06-01T07:39:43.620Z,992.00
2019-06-01T07:40:43.585Z,996.00
2019-06-01T07:41:43.569Z,1008.00
2019-06-01T07:42:43.541Z,1016.00
2019-06-01T07:43:43.496Z,1024.00
2019-06-01T07:44:43.632Z,1028.00
2019-06-01T07:45:43.436Z,1036.00
2019-06-01T07:46:43.411Z,1044.00
2019-06-01T07:47:43.396Z,1048.00
2019-06-01T07:48:43.349Z,1060.00
2019-06-01T07:49:43.342Z,1060.00
2019-06-01T07:50:43.306Z,1068.00
2019-06-01T07:51:43.270Z,1076.00
2019-06-01T07:52:43.235Z,1084.00
2019-06-01T07:53:43.231Z,1100.00
2019-06-01T07:54:43.184Z,1108.00
2019-06-01T07:55:43.159Z,1112.00
2019-06-01T07:56:43.122Z,1120.00
2019-06-01T07:57:44.255Z,1120.00
2019-06-01T07:58:43.077Z,1128.00
2019-06-01T07:59:43.068Z,1132.00
2019-06-01T08:00:43.050Z,1144.00
2019-06-01T08:01:43.015Z,1152.00
2019-06-01T08:02:42.965Z,1160.00
2019-06-01T08:03:42.947Z,1172.00
2019-06-01T08:04:53.597Z,1184.00
2019-06-01T08:05:42.877Z,1192.00
2019-06-01T08:06:47.030Z,1204.00
2019-06-01T08:07:42.816Z,1200.00
2019-06-01T08:08:42.787Z,1204.00
2019-06-01T08:09:42.762Z,1204.00
2019-06-01T08:10:42.737Z,1212.00
2019-06-01T08:11:42.708Z,1212.00
2019-06-01T08:12:42.671Z,1220.00
2019-06-01T08:13:42.660Z,1220.00
2019-06-01T08:14:42.626Z,1220.00
2019-06-01T08:15:42.596Z,1236.00
2019-06-01T08:16:42.568Z,1236.00
2019-06-01T08:17:42.543Z,1260.00
2019-06-01T08:18:42.543Z,1284.00
2019-06-01T08:19:42.477Z,1312.00
2019-06-01T08:20:42.458Z,1332.00
2019-06-01T08:21:42.427Z,1360.00
2019-06-01T08:22:42.405Z,1396.00
2019-06-01T08:23:42.371Z,1416.00
2019-06-01T08:24:42.343Z,1432.00
2019-06-01T08:25:42.314Z,1452.00
2019-06-01T08:26:42.297Z,1456.00
2019-06-01T08:27:42.271Z,1456.00
2019-06-01T08:28:42.224Z,1456.00
2019-06-01T08:29:42.208Z,1448.00
2019-06-01T08:30:42.179Z,1448.00
2019-06-01T08:31:42.178Z,1448.00
2019-06-01T08:32:42.128Z,1452.00
2019-06-01T08:33:42.109Z,1460.00
2019-06-01T08:34:42.084Z,1468.00
2019-06-01T08:35:42.079Z,1484.00
2019-06-01T08:36:42.050Z,1488.00
2019-06-01T08:37:41.996Z,1484.00
2019-06-01T08:38:41.991Z,1496.00
2019-06-01T08:39:41.938Z,1504.00
2019-06-01T08:40:41.915Z,1520.00
2019-06-01T08:41:41.879Z,1524.00
2019-06-01T08:42:41.850Z,1532.00
2019-06-01T08:43:41.841Z,1536.00
2019-06-01T08:44:41.794Z,1536.00
2019-06-01T08:45:41.775Z,1544.00
2019-06-01T08:46:41.748Z,1548.00
2019-06-01T08:47:41.743Z,1548.00
2019-06-01T08:48:41.705Z,1552.00
2019-06-01T08:49:41.707Z,1560.00
2019-06-01T08:50:51.076Z,1568.00
2019-06-01T08:52:46.038Z,1584.00
2019-06-01T08:53:45.994Z,1596.00
2019-06-01T08:54:45.968Z,1604.00
2019-06-01T08:55:45.943Z,1608.00
2019-06-01T08:56:45.930Z,1612.00
2019-06-01T08:57:45.890Z,1616.00
2019-06-01T08:58:45.865Z,1620.00
2019-06-01T08:59:45.840Z,1624.00
2019-06-01T09:00:45.818Z,1632.00
2019-06-01T09:01:45.780Z,1624.00
2019-06-01T09:02:45.755Z,1612.00
2019-06-01T09:03:47.024Z,1616.00
2019-06-01T09:04:45.698Z,1596.00
2019-06-01T09:05:45.671Z,1596.00
2019-06-01T09:06:45.645Z,1584.00
2019-06-01T09:07:45.616Z,1576.00
2019-06-01T09:08:45.589Z,1576.00
2019-06-01T09:09:45.557Z,1568.00
2019-06-01T09:10:45.535Z,1556.00
2019-06-01T09:11:45.510Z,1556.00
2019-06-01T09:12:45.495Z,1532.00
2019-06-01T09:13:45.454Z,1548.00
2019-06-01T09:14:45.440Z,1560.00
2019-06-01T09:15:45.404Z,1572.00
2019-06-01T09:16:45.395Z,1576.00
2019-06-01T09:17:45.352Z,1580.00
2019-06-01T09:18:45.318Z,1568.00
2019-06-01T09:19:45.300Z,1568.00
2019-06-01T09:20:45.292Z,1568.00
2019-06-01T09:21:45.246Z,1584.00
2019-06-01T09:22:48.028Z,1588.00
2019-06-01T09:23:45.184Z,1600.00
2019-06-01T09:24:45.167Z,1612.00
2019-06-01T09:25:45.145Z,1608.00
2019-06-01T09:26:45.138Z,1584.00
2019-06-01T09:27:45.081Z,1580.00
2019-06-01T09:28:45.061Z,1632.00
2019-06-01T09:29:45.039Z,1652.00
2019-06-01T09:30:45.016Z,1652.00
2019-06-01T09:31:44.976Z,1660.00
2019-06-01T09:32:44.951Z,1676.00
2019-06-01T09:33:44.927Z,1684.00
2019-06-01T09:34:44.912Z,1696.00
2019-06-01T09:35:55.533Z,1696.00
2019-06-01T09:36:44.847Z,1712.00
2019-06-01T09:37:45.855Z,1708.00
2019-06-01T09:38:44.797Z,1724.00
2019-06-01T09:39:44.763Z,1760.00
2019-06-01T09:40:44.744Z,1768.00
2019-06-01T09:41:44.713Z,1784.00
2019-06-01T09:42:44.688Z,1792.00
2019-06-01T09:43:44.667Z,1816.00
2019-06-01T09:44:44.636Z,1828.00
2019-06-01T09:45:44.608Z,1844.00
2019-06-01T09:46:44.684Z,1856.00
2019-06-01T09:47:44.553Z,1876.00
2019-06-01T09:48:44.537Z,1892.00
2019-06-01T09:49:44.509Z,1924.00
2019-06-01T09:50:44.477Z,1952.00
2019-06-01T09:51:44.458Z,2008.00
2019-06-01T09:52:44.436Z,2104.00
2019-06-01T09:53:44.413Z,2316.00
2019-06-01T09:54:44.384Z,2812.00
2019-06-01T09:55:44.347Z,4056.00
2019-06-01T09:56:44.319Z,5108.00
2019-06-01T09:57:44.304Z,5300.00
2019-06-01T09:58:44.269Z,5284.00
2019-06-01T09:59:44.248Z,5312.00
2019-06-01T10:00:44.214Z,5320.00
2019-06-01T10:01:44.200Z,5316.00
2019-06-01T10:02:44.172Z,5316.00
2019-06-01T10:03:44.150Z,5324.00
2019-06-01T10:04:44.124Z,5432.00
2019-06-01T10:06:00.344Z,5396.00
2019-06-01T10:06:44.074Z,5500.00
2019-06-01T10:07:44.059Z,5388.00
2019-06-01T10:08:44.028Z,5452.00
2019-06-01T10:09:44.009Z,5348.00
2019-06-01T10:10:43.972Z,5352.00
2019-06-01T10:11:43.950Z,5228.00
2019-06-01T10:12:43.923Z,4836.00
2019-06-01T10:13:43.897Z,4868.00
2019-06-01T10:14:43.879Z,4804.00
2019-06-01T10:15:43.860Z,4764.00
2019-06-01T10:16:43.831Z,4820.00
2019-06-01T10:17:43.806Z,4672.00
2019-06-01T10:18:43.821Z,4672.00
2019-06-01T10:19:43.769Z,4644.00
2019-06-01T10:20:43.730Z,4684.00
2019-06-01T10:21:43.728Z,4584.00
2019-06-01T10:22:43.680Z,4624.00
2019-06-01T10:23:48.794Z,4504.00
2019-06-01T10:24:43.631Z,4424.00
2019-06-01T10:25:43.612Z,4380.00
2019-06-01T10:26:43.594Z,4452.00
2019-06-01T10:27:43.570Z,4392.00
2019-06-01T10:28:43.549Z,4340.00
2019-06-01T10:29:43.527Z,4264.00
2019-06-01T10:30:43.501Z,4216.00
2019-06-01T10:31:43.477Z,4248.00
2019-06-01T10:32:43.466Z,4192.00
2019-06-01T10:33:43.439Z,4044.00
2019-06-01T10:34:43.412Z,4116.00
2019-06-01T10:35:43.387Z,4048.00
2019-06-01T10:36:43.368Z,4100.00
2019-06-01T10:37:43.352Z,4128.00
2019-06-01T10:38:43.340Z,4048.00
2019-06-01T10:39:43.305Z,3904.00
2019-06-01T10:40:43.288Z,4196.00
2019-06-01T10:41:43.262Z,4224.00
2019-06-01T10:42:43.234Z,4092.00
2019-06-01T10:43:43.225Z,4032.00
2019-06-01T10:44:45.683Z,4080.00
2019-06-01T10:45:43.171Z,4176.00
2019-06-01T10:46:43.152Z,4144.00
2019-06-01T10:47:43.132Z,4048.00
2019-06-01T10:48:43.110Z,4168.00
2019-06-01T10:49:43.080Z,4100.00
2019-06-01T10:50:43.069Z,4112.00
2019-06-01T10:51:43.042Z,4204.00
2019-06-01T10:52:43.032Z,3988.00
2019-06-01T10:53:43.796Z,3904.00
2019-06-01T10:54:42.982Z,3916.00
2019-06-01T10:55:42.963Z,3924.00
2019-06-01T10:56:42.940Z,3924.00
2019-06-01T10:57:42.920Z,3932.00
2019-06-01T10:58:56.802Z,3904.00
2019-06-01T10:59:42.877Z,3972.00
2019-06-01T11:00:49.420Z,4016.00
2019-06-01T11:01:42.865Z,4020.00
2019-06-01T11:02:43.364Z,3996.00
2019-06-01T11:03:42.941Z,3996.00
2019-06-01T11:04:43.435Z,4000.00
2019-06-01T11:05:42.941Z,3988.00
2019-06-01T11:06:47.949Z,3968.00
2019-06-01T11:07:43.088Z,4016.00
2019-06-01T11:08:43.166Z,4036.00
2019-06-01T11:09:43.238Z,4004.00
2019-06-01T11:10:43.238Z,3868.00
2019-06-01T11:11:43.221Z,3884.00
2019-06-01T11:12:43.272Z,3764.00
2019-06-01T11:13:43.288Z,4004.00
2019-06-01T11:14:43.363Z,4220.00
2019-06-01T11:15:43.311Z,4220.00
2019-06-01T11:16:43.917Z,4208.00
2019-06-01T11:17:43.245Z,3976.00
2019-06-01T11:18:43.632Z,3956.00
2019-06-01T11:19:43.618Z,3944.00
2019-06-01T11:20:43.540Z,3912.00
2019-06-01T11:21:43.650Z,3904.00
2019-06-01T11:22:43.599Z,3896.00
2019-06-01T11:23:45.046Z,3908.00
2019-06-01T11:24:42.366Z,3948.00
2019-06-01T11:25:43.703Z,3912.00
2019-06-01T11:26:42.323Z,3800.00
2019-06-01T11:27:42.292Z,3944.00
2019-06-01T11:28:42.345Z,3992.00
2019-06-01T11:29:49.741Z,4040.00
2019-06-01T11:30:42.250Z,4028.00
2019-06-01T11:31:42.273Z,3988.00
2019-06-01T11:32:43.663Z,3724.00
2019-06-01T11:33:42.224Z,3836.00
2019-06-01T11:34:42.488Z,3812.00
2019-06-01T11:35:43.481Z,3760.00
2019-06-01T11:37:03.508Z,3736.00
2019-06-01T11:37:42.429Z,3644.00
2019-06-01T11:38:42.566Z,3800.00
2019-06-01T11:39:42.653Z,3788.00
2019-06-01T11:40:42.803Z,3768.00
2019-06-01T11:41:42.670Z,3840.00
2019-06-01T11:42:43.011Z,3904.00
2019-06-01T11:43:42.740Z,3860.00
2019-06-01T11:44:42.852Z,3812.00
2019-06-01T11:45:42.897Z,3876.00
2019-06-01T11:46:42.982Z,3912.00
2019-06-01T11:47:42.941Z,3936.00
2019-06-01T11:48:43.354Z,3860.00
2019-06-01T11:49:42.862Z,3908.00
2019-06-01T11:50:43.023Z,3948.00
2019-06-01T11:51:43.190Z,3920.00
2019-06-01T11:52:41.810Z,3988.00
2019-06-01T11:53:41.778Z,3948.00
2019-06-01T11:54:41.767Z,3944.00
2019-06-01T11:55:41.750Z,3936.00
2019-06-01T11:56:41.716Z,3816.00
2019-06-01T11:57:41.700Z,3972.00
2019-06-01T11:58:41.671Z,4012.00
2019-06-01T11:59:41.695Z,3988.00
2019-06-01T12:00:41.665Z,4024.00
2019-06-01T12:01:41.783Z,4036.00
2019-06-01T12:02:41.892Z,3996.00
2019-06-01T12:03:41.821Z,4012.00
2019-06-01T12:04:41.943Z,4032.00
2019-06-01T12:05:42.088Z,4036.00
2019-06-01T12:06:41.925Z,4020.00
2019-06-01T12:07:41.985Z,4028.00
2019-06-01T12:08:42.248Z,4024.00
2019-06-01T12:09:41.853Z,3960.00
2019-06-01T12:10:41.452Z,4012.00
2019-06-01T12:11:42.179Z,3972.00
2019-06-01T12:12:42.350Z,3964.00
2019-06-01T12:13:42.203Z,3920.00
2019-06-01T12:14:42.632Z,3856.00
2019-06-01T12:15:42.272Z,4004.00
2019-06-01T12:16:42.556Z,4004.00
2019-06-01T12:17:42.711Z,4024.00
2019-06-01T12:18:42.542Z,3984.00
2019-06-01T12:19:42.614Z,4028.00
2019-06-01T12:20:41.253Z,4072.00
2019-06-01T12:21:41.236Z,4012.00
2019-06-01T12:22:41.208Z,4016.00
2019-06-01T12:23:41.483Z,4032.00
2019-06-01T12:24:41.176Z,4044.00
2019-06-01T12:25:42.169Z,4060.00
2019-06-01T12:26:41.373Z,4076.00
2019-06-01T12:27:41.620Z,4120.00
2019-06-01T12:28:41.591Z,3892.00
2019-06-01T12:29:41.506Z,4220.00
2019-06-01T12:30:41.569Z,4208.00
2019-06-01T12:31:41.693Z,4220.00
2019-06-01T12:32:41.940Z,4176.00
2019-06-01T12:33:41.994Z,4144.00
2019-06-01T12:34:41.973Z,4188.00
2019-06-01T12:35:41.988Z,4180.00
2019-06-01T12:36:42.260Z,4212.00
2019-06-01T12:38:00.863Z,4232.00
2019-06-01T12:38:41.944Z,4196.00
2019-06-01T12:39:40.896Z,4212.00
2019-06-01T12:40:41.138Z,4208.00
2019-06-01T12:41:41.529Z,4200.00
2019-06-01T12:42:41.504Z,4184.00
2019-06-01T12:43:41.497Z,4188.00
2019-06-01T12:44:41.643Z,4120.00
2019-06-01T12:45:41.615Z,4164.00
2019-06-01T12:46:41.736Z,4148.00
2019-06-01T12:47:41.813Z,4216.00
2019-06-01T12:48:41.666Z,4312.00
2019-06-01T12:49:42.021Z,4152.00
2019-06-01T12:50:40.725Z,4184.00
2019-06-01T12:51:40.744Z,4084.00
2019-06-01T12:52:40.659Z,4208.00
2019-06-01T12:53:40.639Z,4032.00
2019-06-01T12:54:40.614Z,3832.00
2019-06-01T12:55:40.587Z,3960.00
2019-06-01T12:56:40.796Z,4112.00
2019-06-01T12:57:40.770Z,4120.00
2019-06-01T12:58:41.733Z,4096.00
2019-06-01T12:59:41.051Z,4144.00
2019-06-01T13:00:40.500Z,4196.00
2019-06-01T13:01:41.022Z,4200.00
2019-06-01T13:02:40.499Z,4268.00
2019-06-01T13:03:41.175Z,4304.00
2019-06-01T13:04:40.637Z,4296.00
2019-06-01T13:05:41.503Z,4256.00
2019-06-01T13:06:40.761Z,4192.00
2019-06-01T13:07:54.335Z,4176.00